createdAt,value
2022-11-28T00:01:17.345Z,12.43
2022-11-28T00:03:44.216Z,13.83
2022-11-28T00:06:11.211Z,13.03
2022-11-28T00:08:38.254Z,14.00
2022-11-28T00:11:11.164Z,12.90
2022-11-28T00:13:38.551Z,13.83
2022-11-28T00:16:07.452Z,13.70
2022-11-28T00:18:34.766Z,14.10
2022-11-28T00:21:04.035Z,14.30
2022-11-28T00:23:31.950Z,13.00
2022-11-28T00:26:00.807Z,14.97
2022-11-28T00:28:28.353Z,12.97
2022-11-28T00:30:57.585Z,14.63
2022-11-28T00:33:25.038Z,13.73
2022-11-28T00:35:57.616Z,14.00
2022-11-28T00:38:24.430Z,13.20
2022-11-28T00:41:03.067Z,14.37
2022-11-28T00:43:30.026Z,14.10
2022-11-28T00:45:57.003Z,13.50
2022-11-28T00:48:24.482Z,13.83
2022-11-28T00:50:52.151Z,13.83
2022-11-28T00:53:19.093Z,16.23
2022-11-28T00:55:46.169Z,15.77
2022-11-28T00:58:13.386Z,14.27
2022-11-28T01:00:40.460Z,14.77
2022-11-28T01:03:07.341Z,14.70
2022-11-28T01:05:40.723Z,15.77
2022-11-28T01:08:07.704Z,14.50
2022-11-28T01:10:34.592Z,14.23
2022-11-28T01:13:01.496Z,15.53
2022-11-28T01:15:28.376Z,15.00
2022-11-28T01:17:55.162Z,15.13
2022-11-28T01:20:21.926Z,15.20
2022-11-28T01:22:48.713Z,14.37
2022-11-28T01:25:15.570Z,15.33
2022-11-28T01:27:42.376Z,16.27
2022-11-28T01:30:09.304Z,15.37
2022-11-28T01:32:36.063Z,14.57
2022-11-28T01:35:02.897Z,15.30
2022-11-28T01:37:30.516Z,16.47
2022-11-28T01:39:57.362Z,15.17
2022-11-28T01:42:24.246Z,15.10
2022-11-28T01:44:53.805Z,16.40
2022-11-28T01:47:27.886Z,15.77
2022-11-28T01:49:55.519Z,16.77
2022-11-28T01:52:22.992Z,16.40
2022-11-28T01:54:55.121Z,16.33
2022-11-28T01:57:25.328Z,16.43
2022-11-28T02:00:19.585Z,16.33
2022-11-28T02:02:50.339Z,16.60
2022-11-28T02:05:20.525Z,17.03
2022-11-28T02:07:48.651Z,17.67
2022-11-28T02:10:23.612Z,17.03
2022-11-28T02:13:13.731Z,18.40
2022-11-28T02:16:15.991Z,17.87
2022-11-28T02:18:54.208Z,17.87
2022-11-28T02:21:42.914Z,17.90
2022-11-28T02:24:28.492Z,19.53
2022-11-28T02:27:14.778Z,17.80
2022-11-28T02:30:12.839Z,17.97
2022-11-28T02:32:57.775Z,17.23
2022-11-28T02:35:49.551Z,18.27
2022-11-28T02:38:26.315Z,18.43
2022-11-28T02:41:02.697Z,19.17
2022-11-28T02:43:35.428Z,18.13
2022-11-28T02:46:13.651Z,17.77
2022-11-28T02:48:53.198Z,17.43
2022-11-28T02:51:41.992Z,17.50
2022-11-28T02:54:11.792Z,17.10
2022-11-28T02:56:39.009Z,17.37
2022-11-28T02:59:36.993Z,17.53
2022-11-28T03:02:21.472Z,17.37
2022-11-28T03:05:21.175Z,18.00
2022-11-28T03:08:16.598Z,17.90
2022-11-28T03:10:57.212Z,17.90
2022-11-28T03:13:48.294Z,18.07
2022-11-28T03:16:23.637Z,18.27
2022-11-28T03:19:05.461Z,17.80
2022-11-28T03:21:40.562Z,17.03
2022-11-28T03:24:18.174Z,18.13
2022-11-28T03:26:57.559Z,17.00
2022-11-28T03:29:29.025Z,18.50
2022-11-28T03:32:04.050Z,17.43
2022-11-28T03:34:37.740Z,16.27
2022-11-28T03:37:30.758Z,15.87
2022-11-28T03:40:05.279Z,17.80
2022-11-28T03:42:37.540Z,15.80
2022-11-28T03:45:16.020Z,16.60
2022-11-28T03:47:47.769Z,16.90
2022-11-28T03:50:23.642Z,18.03
2022-11-28T03:52:55.064Z,17.33
2022-11-28T03:55:35.965Z,16.60
2022-11-28T03:58:13.400Z,16.93
2022-11-28T04:00:56.731Z,16.77
2022-11-28T04:03:49.046Z,16.03
2022-11-28T04:06:24.732Z,17.77
2022-11-28T04:09:14.168Z,17.03
2022-11-28T04:11:49.631Z,17.03
2022-11-28T04:14:26.452Z,16.80
2022-11-28T04:17:39.535Z,17.47
2022-11-28T04:20:18.809Z,15.87
2022-11-28T04:22:50.746Z,16.50
2022-11-28T04:25:21.228Z,16.77
2022-11-28T04:28:00.033Z,16.63
2022-11-28T04:30:26.912Z,16.93
2022-11-28T04:33:01.151Z,18.23
2022-11-28T04:35:41.449Z,17.87
2022-11-28T04:38:10.905Z,17.20
2022-11-28T04:41:04.258Z,17.47
2022-11-28T04:43:35.341Z,17.10
2022-11-28T04:46:31.781Z,16.13
2022-11-28T04:48:59.267Z,17.03
2022-11-28T04:51:57.036Z,15.67
2022-11-28T04:54:41.814Z,16.63
2022-11-28T04:57:14.368Z,16.30
2022-11-28T04:59:42.722Z,16.20
2022-11-28T05:02:11.545Z,16.60
2022-11-28T05:04:38.698Z,16.27
2022-11-28T05:07:07.651Z,17.10
2022-11-28T05:09:35.251Z,19.63
2022-11-28T05:12:02.153Z,18.30
2022-11-28T05:14:29.111Z,17.03
2022-11-28T05:16:55.931Z,18.67
2022-11-28T05:19:23.045Z,18.50
2022-11-28T05:21:49.841Z,16.30
2022-11-28T05:24:16.709Z,19.37
2022-11-28T05:26:43.517Z,20.93
2022-11-28T05:29:10.348Z,19.90
2022-11-28T05:31:38.128Z,17.50
2022-11-28T05:34:05.243Z,17.23
2022-11-28T05:36:32.148Z,16.07
2022-11-28T05:38:59.010Z,16.17
2022-11-28T05:41:29.068Z,16.17
2022-11-28T05:43:57.237Z,15.40
2022-11-28T05:46:24.887Z,16.73
2022-11-28T05:48:58.266Z,19.73
2022-11-28T05:51:25.236Z,19.90
2022-11-28T05:53:52.172Z,18.60
2022-11-28T05:56:23.044Z,17.40
2022-11-28T05:59:13.078Z,17.07
2022-11-28T06:01:40.178Z,17.07
2022-11-28T06:04:07.049Z,18.53
2022-11-28T06:06:35.560Z,17.43
2022-11-28T06:09:04.071Z,17.03
2022-11-28T06:11:32.752Z,17.33
2022-11-28T06:13:59.535Z,17.07
2022-11-28T06:16:28.690Z,16.70
2022-11-28T06:18:58.120Z,16.33
2022-11-28T06:21:25.740Z,15.57
2022-11-28T06:23:52.921Z,15.47
2022-11-28T06:26:22.869Z,16.30
2022-11-28T06:28:50.015Z,16.30
2022-11-28T06:31:22.793Z,15.67
2022-11-28T06:33:50.375Z,15.63
2022-11-28T06:36:18.780Z,16.00
2022-11-28T06:38:46.107Z,16.67
2022-11-28T06:41:15.888Z,15.90
2022-11-28T06:43:43.144Z,15.37
2022-11-28T06:46:16.479Z,17.97
2022-11-28T06:48:44.404Z,15.40
2022-11-28T06:51:12.514Z,15.37
2022-11-28T06:53:39.772Z,15.43
2022-11-28T06:56:08.824Z,16.27
2022-11-28T06:58:36.610Z,21.30
2022-11-28T07:01:14.413Z,22.63
2022-11-28T07:03:41.374Z,17.77
2022-11-28T07:06:09.237Z,17.10
2022-11-28T07:08:36.742Z,16.00
2022-11-28T07:11:14.402Z,17.47
2022-11-28T07:13:42.601Z,16.83
2022-11-28T07:16:23.388Z,17.73
2022-11-28T07:18:51.415Z,16.90
2022-11-28T07:21:19.062Z,18.40
2022-11-28T07:23:46.838Z,18.13
2022-11-28T07:26:15.441Z,20.43
2022-11-28T07:28:42.984Z,18.40
2022-11-28T07:31:12.716Z,17.70
2022-11-28T07:33:40.997Z,16.80
2022-11-28T07:36:12.840Z,21.27
2022-11-28T07:38:39.660Z,19.00
2022-11-28T07:41:08.518Z,17.37
2022-11-28T07:43:35.509Z,18.20
2022-11-28T07:46:08.021Z,18.47
2022-11-28T07:48:35.614Z,17.50
2022-11-28T07:51:08.090Z,18.33
2022-11-28T07:53:35.677Z,16.90
2022-11-28T07:56:04.264Z,16.57
2022-11-28T07:58:32.025Z,16.90
2022-11-28T08:00:59.328Z,16.97
2022-11-28T08:03:26.183Z,16.67
2022-11-28T08:05:52.983Z,17.90
2022-11-28T08:08:20.358Z,15.20
2022-11-28T08:10:47.214Z,16.03
2022-11-28T08:13:14.231Z,16.40
2022-11-28T08:15:41.251Z,17.27
2022-11-28T08:18:08.116Z,15.93
2022-11-28T08:20:34.963Z,16.67
2022-11-28T08:23:01.769Z,15.30
2022-11-28T08:25:28.610Z,16.73
2022-11-28T08:27:55.434Z,16.40
2022-11-28T08:30:22.737Z,16.23
2022-11-28T08:32:49.968Z,16.57
2022-11-28T08:35:16.987Z,17.53
2022-11-28T08:37:43.839Z,16.50
2022-11-28T08:40:10.936Z,16.80
2022-11-28T08:42:37.778Z,16.50
2022-11-28T08:45:06.380Z,17.00
2022-11-28T08:47:33.661Z,16.97
2022-11-28T08:50:00.466Z,15.90
2022-11-28T08:52:27.260Z,16.87
2022-11-28T08:54:54.615Z,16.30
2022-11-28T08:57:21.416Z,16.23
2022-11-28T08:59:48.171Z,16.00
2022-11-28T09:02:14.964Z,15.57
2022-11-28T09:04:41.808Z,15.50
2022-11-28T09:07:08.590Z,17.17
2022-11-28T09:09:35.527Z,14.63
2022-11-28T09:12:02.459Z,15.97
2022-11-28T09:14:29.292Z,15.70
2022-11-28T09:16:56.231Z,15.70
2022-11-28T09:19:24.185Z,16.43
2022-11-28T09:21:56.154Z,14.63
2022-11-28T09:24:24.628Z,14.53
2022-11-28T09:26:51.461Z,15.00
2022-11-28T09:29:18.236Z,14.70
2022-11-28T09:31:47.487Z,14.97
2022-11-28T09:34:15.119Z,14.20
2022-11-28T09:36:42.045Z,14.10
2022-11-28T09:39:09.164Z,14.30
2022-11-28T09:41:57.938Z,15.17
2022-11-28T09:44:37.912Z,15.67
2022-11-28T09:47:12.208Z,14.53
2022-11-28T09:50:20.866Z,14.87
2022-11-28T09:53:11.489Z,15.00
2022-11-28T09:56:00.092Z,14.40
2022-11-28T09:59:05.082Z,15.03
2022-11-28T10:01:46.879Z,14.77
2022-11-28T10:05:05.479Z,14.50
2022-11-28T10:07:38.706Z,15.27
2022-11-28T10:10:14.685Z,16.07
2022-11-28T10:13:19.562Z,15.33
2022-11-28T10:16:06.310Z,13.60
2022-11-28T10:18:50.915Z,15.53
2022-11-28T10:21:36.419Z,20.93
2022-11-28T10:24:16.216Z,16.77
2022-11-28T10:26:51.976Z,16.00
2022-11-28T10:29:26.747Z,24.53
2022-11-28T10:32:01.882Z,17.47
2022-11-28T10:34:45.458Z,16.80
2022-11-28T10:37:26.348Z,14.90
2022-11-28T10:39:53.519Z,16.30
2022-11-28T10:42:20.344Z,17.70
2022-11-28T10:45:22.340Z,15.80
2022-11-28T10:48:39.570Z,15.17
2022-11-28T10:51:14.035Z,17.70
2022-11-28T10:53:59.269Z,16.90
2022-11-28T10:57:11.856Z,16.20
2022-11-28T11:00:03.867Z,16.10
2022-11-28T11:02:34.154Z,15.17
2022-11-28T11:05:01.064Z,16.10
2022-11-28T11:07:30.893Z,15.97
2022-11-28T11:10:14.491Z,16.83
2022-11-28T11:12:41.744Z,15.90
2022-11-28T11:15:33.787Z,16.23
2022-11-28T11:18:17.216Z,14.70
2022-11-28T11:20:44.051Z,15.67
2022-11-28T11:23:20.122Z,16.10
2022-11-28T11:25:54.748Z,15.73
2022-11-28T11:28:39.792Z,14.97
2022-11-28T11:31:23.121Z,15.07
2022-11-28T11:34:14.553Z,16.00
2022-11-28T11:36:41.447Z,16.67
2022-11-28T11:39:11.500Z,16.33
2022-11-28T11:42:11.979Z,15.43
2022-11-28T11:44:39.116Z,15.30
2022-11-28T11:47:08.649Z,14.43
2022-11-28T11:49:43.595Z,15.57
2022-11-28T11:52:14.150Z,14.30
2022-11-28T11:54:56.761Z,14.80
2022-11-28T11:57:46.285Z,15.53
2022-11-28T12:00:43.197Z,15.73
2022-11-28T12:03:36.704Z,16.40
2022-11-28T12:06:20.477Z,14.97
2022-11-28T12:08:52.338Z,14.93
2022-11-28T12:11:26.737Z,15.90
2022-11-28T12:13:54.023Z,15.47
2022-11-28T12:16:35.936Z,15.37
2022-11-28T12:19:31.354Z,15.73
2022-11-28T12:22:07.161Z,15.67
2022-11-28T12:25:04.571Z,17.20
2022-11-28T12:27:57.432Z,16.00
2022-11-28T12:30:34.277Z,15.60
2022-11-28T12:33:22.882Z,19.90
2022-11-28T12:36:13.081Z,15.40
2022-11-28T12:38:45.950Z,16.03
2022-11-28T12:41:30.723Z,16.20
2022-11-28T12:44:05.174Z,16.67
2022-11-28T12:46:55.117Z,17.00
2022-11-28T12:49:33.844Z,16.53
2022-11-28T12:52:35.595Z,15.47
2022-11-28T12:55:44.405Z,16.03
2022-11-28T12:58:27.506Z,15.67
2022-11-28T13:01:26.659Z,16.03
2022-11-28T13:04:21.294Z,16.53
2022-11-28T13:07:06.217Z,16.30
2022-11-28T13:09:37.282Z,16.27
2022-11-28T13:12:04.098Z,16.67
2022-11-28T13:14:55.049Z,16.03
2022-11-28T13:17:35.922Z,16.50
2022-11-28T13:20:26.903Z,16.10
2022-11-28T13:23:33.640Z,15.63
2022-11-28T13:26:35.097Z,16.23
2022-11-28T13:29:33.212Z,16.27
2022-11-28T13:32:18.328Z,15.47
2022-11-28T13:34:46.340Z,16.07
2022-11-28T13:40:13.632Z,14.87
2022-11-28T13:43:08.061Z,15.90
2022-11-28T13:45:40.642Z,16.73
2022-11-28T13:51:31.979Z,16.93
2022-11-28T13:54:25.804Z,16.77
2022-11-28T13:57:10.905Z,16.13
2022-11-28T13:59:38.709Z,15.80
2022-11-28T14:02:21.236Z,17.20
2022-11-28T14:04:48.698Z,15.97
2022-11-28T14:07:26.498Z,16.30
2022-11-28T14:09:53.378Z,16.67
2022-11-28T14:12:35.447Z,17.63
2022-11-28T14:15:10.726Z,15.93
2022-11-28T14:17:45.450Z,16.80
2022-11-28T14:20:20.604Z,17.23
2022-11-28T14:22:47.385Z,16.57
2022-11-28T14:25:43.928Z,16.30
2022-11-28T14:28:21.565Z,16.63
2022-11-28T14:30:49.891Z,17.33
2022-11-28T14:33:42.541Z,16.00
2022-11-28T14:36:24.959Z,17.43
2022-11-28T14:39:01.055Z,18.10
2022-11-28T14:41:27.985Z,17.37
2022-11-28T14:43:54.836Z,17.60
2022-11-28T14:46:26.650Z,17.60
2022-11-28T14:48:59.757Z,20.10
2022-11-28T14:51:48.528Z,17.83
2022-11-28T14:54:18.357Z,17.97
2022-11-28T14:56:46.480Z,17.37
2022-11-28T14:59:13.347Z,16.87
2022-11-28T15:02:05.187Z,16.33
2022-11-28T15:04:44.817Z,21.10
2022-11-28T15:07:33.893Z,19.70
2022-11-28T15:10:15.418Z,22.17
2022-11-28T15:13:01.019Z,19.07
2022-11-28T15:15:28.259Z,20.80
2022-11-28T15:17:55.742Z,23.97
2022-11-28T15:20:42.429Z,28.00
2022-11-28T15:23:33.267Z,23.73
2022-11-28T15:26:00.878Z,23.43
2022-11-28T15:28:32.229Z,24.23
2022-11-28T15:31:08.722Z,23.13
2022-11-28T15:33:36.296Z,23.87
2022-11-28T15:36:16.477Z,21.10
2022-11-28T15:38:44.575Z,20.87
2022-11-28T15:41:11.675Z,20.13
2022-11-28T15:43:42.381Z,19.53
2022-11-28T15:46:19.431Z,19.93
2022-11-28T15:48:52.321Z,20.70
2022-11-28T15:51:31.210Z,21.93
2022-11-28T15:53:59.956Z,20.57
2022-11-28T15:56:26.925Z,20.50
2022-11-28T15:58:54.198Z,19.60
2022-11-28T16:01:25.111Z,20.13
2022-11-28T16:04:10.777Z,21.57
2022-11-28T16:06:40.106Z,21.87
2022-11-28T16:09:24.396Z,27.50
2022-11-28T16:11:53.077Z,28.10
2022-11-28T16:14:35.392Z,27.60
2022-11-28T16:17:19.381Z,29.47
2022-11-28T16:19:46.609Z,26.73
2022-11-28T16:22:20.548Z,24.13
2022-11-28T16:24:55.490Z,25.97
2022-11-28T16:27:39.381Z,25.37
2022-11-28T16:30:31.782Z,23.67
2022-11-28T16:32:59.316Z,22.23
2022-11-28T16:35:41.586Z,22.23
2022-11-28T16:38:21.784Z,21.57
2022-11-28T16:40:52.208Z,24.67
2022-11-28T16:43:36.474Z,23.30
2022-11-28T16:46:06.783Z,22.87
2022-11-28T16:48:46.171Z,29.00
2022-11-28T16:51:13.034Z,24.00
2022-11-28T16:53:51.580Z,24.67
2022-11-28T16:56:27.552Z,25.17
2022-11-28T16:59:09.098Z,26.47
2022-11-28T17:01:36.445Z,40.20
2022-11-28T17:04:04.043Z,35.60
2022-11-28T17:06:37.715Z,25.17
2022-11-28T17:09:07.270Z,29.70
2022-11-28T17:11:36.976Z,70.87
2022-11-28T17:14:08.678Z,86.60
2022-11-28T17:16:39.808Z,67.37
2022-11-28T17:19:07.029Z,67.53
2022-11-28T17:21:47.665Z,47.83
2022-11-28T17:24:24.302Z,27.03
2022-11-28T17:26:52.520Z,26.87
2022-11-28T17:29:20.234Z,23.80
2022-11-28T17:31:48.359Z,31.30
2022-11-28T17:34:20.285Z,33.10
2022-11-28T17:36:50.242Z,31.77
2022-11-28T17:39:18.633Z,31.07
2022-11-28T17:41:46.943Z,26.13
2022-11-28T17:44:20.658Z,26.83
2022-11-28T17:46:52.705Z,26.37
2022-11-28T17:49:20.504Z,22.37
2022-11-28T17:51:47.552Z,28.00
2022-11-28T17:54:17.880Z,22.80
2022-11-28T17:56:46.345Z,22.57
2022-11-28T17:59:14.536Z,23.33
2022-11-28T18:01:44.547Z,22.27
2022-11-28T18:04:12.076Z,24.17
2022-11-28T18:06:39.162Z,23.17
2022-11-28T18:09:11.591Z,23.50
2022-11-28T18:11:41.810Z,24.50
2022-11-28T18:14:09.304Z,27.07
2022-11-28T18:16:36.410Z,29.63
2022-11-28T18:19:04.788Z,45.00
2022-11-28T18:21:32.491Z,29.43
2022-11-28T18:23:59.546Z,30.70
2022-11-28T18:26:28.428Z,31.33
2022-11-28T18:28:55.743Z,25.07
2022-11-28T18:31:25.745Z,23.60
2022-11-28T18:34:00.240Z,24.20
2022-11-28T18:36:30.308Z,24.87
2022-11-28T18:38:58.910Z,25.23
2022-11-28T18:41:26.631Z,26.57
2022-11-28T18:44:02.221Z,27.37
2022-11-28T18:46:30.489Z,26.27
2022-11-28T18:48:58.071Z,26.27
2022-11-28T18:51:32.579Z,25.30
2022-11-28T18:54:02.033Z,25.03
2022-11-28T18:56:30.038Z,26.23
2022-11-28T18:58:59.015Z,25.83
2022-11-28T19:01:30.362Z,26.37
2022-11-28T19:04:09.474Z,25.60
2022-11-28T19:06:37.811Z,25.27
2022-11-28T19:09:07.188Z,24.67
2022-11-28T19:11:36.515Z,25.87
2022-11-28T19:14:04.182Z,27.67
2022-11-28T19:16:33.528Z,26.50
2022-11-28T19:19:01.198Z,26.40
2022-11-28T19:21:32.715Z,27.03
2022-11-28T19:24:00.635Z,28.47
2022-11-28T19:26:30.218Z,24.80
2022-11-28T19:28:57.655Z,26.30
2022-11-28T19:31:27.324Z,26.93
2022-11-28T19:34:02.207Z,31.03
2022-11-28T19:36:39.340Z,35.17
2022-11-28T19:39:07.184Z,32.80
2022-11-28T19:41:34.717Z,30.13
2022-11-28T19:44:01.884Z,29.43
2022-11-28T19:46:35.196Z,27.93
2022-11-28T19:49:03.746Z,27.23
2022-11-28T19:51:30.705Z,31.50
2022-11-28T19:54:03.137Z,29.07
2022-11-28T19:56:40.545Z,25.20
2022-11-28T19:59:07.615Z,26.13
2022-11-28T20:01:35.031Z,26.17
2022-11-28T20:04:13.072Z,25.80
2022-11-28T20:06:40.123Z,26.03
2022-11-28T20:09:10.542Z,24.90
2022-11-28T20:11:41.380Z,25.37
2022-11-28T20:14:18.422Z,24.93
2022-11-28T20:16:46.451Z,24.97
2022-11-28T20:19:15.043Z,25.40
2022-11-28T20:21:42.047Z,23.57
2022-11-28T20:24:10.230Z,24.17
2022-11-28T20:26:42.715Z,27.70
2022-11-28T20:29:13.893Z,23.97
2022-11-28T20:31:46.510Z,24.00
2022-11-28T20:34:14.898Z,24.57
2022-11-28T20:36:41.857Z,23.97
2022-11-28T20:39:10.097Z,24.20
2022-11-28T20:41:37.215Z,23.43
2022-11-28T20:44:04.135Z,24.40
2022-11-28T20:46:34.139Z,24.47
2022-11-28T20:49:04.122Z,23.13
2022-11-28T20:51:33.220Z,22.37
2022-11-28T20:54:01.710Z,22.90
2022-11-28T20:56:31.782Z,23.07
2022-11-28T20:59:00.785Z,22.07
2022-11-28T21:01:33.208Z,22.10
2022-11-28T21:04:01.513Z,20.20
2022-11-28T21:06:28.577Z,21.40
2022-11-28T21:08:56.901Z,21.03
2022-11-28T21:11:55.065Z,21.23
2022-11-28T21:14:14.215Z,23.70
2022-11-28T21:16:41.477Z,21.57
2022-11-28T21:19:09.531Z,23.10
2022-11-28T21:21:40.507Z,22.47
2022-11-28T21:24:11.439Z,23.83
2022-11-28T21:26:44.226Z,24.73
2022-11-28T21:29:14.948Z,22.37
2022-11-28T21:31:43.556Z,22.53
2022-11-28T21:34:14.372Z,25.80
2022-11-28T21:36:42.476Z,24.73
2022-11-28T21:39:13.872Z,31.57
2022-11-28T21:41:41.071Z,30.03
2022-11-28T21:44:08.283Z,38.13
2022-11-28T21:46:35.216Z,32.97
2022-11-28T21:49:02.118Z,31.23
2022-11-28T21:51:28.996Z,26.30
2022-11-28T21:53:57.612Z,22.83
2022-11-28T21:56:25.003Z,23.30
2022-11-28T21:58:52.224Z,22.67
2022-11-28T22:01:20.439Z,21.37
2022-11-28T22:03:47.655Z,22.43
2022-11-28T22:06:17.595Z,21.80
2022-11-28T22:08:48.536Z,22.17
2022-11-28T22:11:16.070Z,22.23
2022-11-28T22:13:45.901Z,22.70
2022-11-28T22:16:16.570Z,21.27
2022-11-28T22:18:44.319Z,21.60
2022-11-28T22:21:49.433Z,23.07
2022-11-28T22:23:58.769Z,23.13
2022-11-28T22:26:25.705Z,23.90
2022-11-28T22:28:53.732Z,23.53
2022-11-28T22:31:21.399Z,24.23
2022-11-28T22:33:52.611Z,23.27
2022-11-28T22:36:21.041Z,25.57
2022-11-28T22:38:53.716Z,24.37
2022-11-28T22:41:28.457Z,24.30
2022-11-28T22:43:57.672Z,24.93
2022-11-28T22:46:24.723Z,22.40
2022-11-28T22:48:52.111Z,24.07
2022-11-28T22:51:22.596Z,23.60
2022-11-28T22:53:57.040Z,22.50
2022-11-28T22:56:24.290Z,22.43
2022-11-28T22:58:51.719Z,22.00
2022-11-28T23:01:24.044Z,23.63
2022-11-28T23:03:51.997Z,22.77
2022-11-28T23:06:21.692Z,21.83
2022-11-28T23:08:49.377Z,21.40
2022-11-28T23:11:19.221Z,22.40
2022-11-28T23:13:50.162Z,22.60
2022-11-28T23:16:26.313Z,23.00
2022-11-28T23:18:55.353Z,23.47
2022-11-28T23:21:23.785Z,23.00
2022-11-28T23:23:50.925Z,24.17
2022-11-28T23:26:21.246Z,23.73
2022-11-28T23:28:49.137Z,23.97
2022-11-28T23:31:37.459Z,23.47
2022-11-28T23:34:05.125Z,23.43
2022-11-28T23:36:41.855Z,23.23
2022-11-28T23:39:21.024Z,21.47
2022-11-28T23:41:48.681Z,22.27
2022-11-28T23:44:17.252Z,22.43
2022-11-28T23:46:44.465Z,21.10
2022-11-28T23:49:12.295Z,21.73
2022-11-28T23:51:40.586Z,21.67
2022-11-28T23:54:08.879Z,22.47
2022-11-28T23:56:37.783Z,20.80
2022-11-28T23:59:06.932Z,21.60
